sensor_id;sensor_type;location;lat;lon;timestamp;P1;durP1;ratioP1;P2;durP2;ratioP2
19800;SDS011;10060;48.274;12.214;2022-12-10T00:01:47;43.80;;;20.60;;
19800;SDS011;10060;48.274;12.214;2022-12-10T00:04:49;47.87;;;21.77;;
19800;SDS011;10060;48.274;12.214;2022-12-10T00:07:53;44.20;;;21.83;;
19800;SDS011;10060;48.274;12.214;2022-12-10T00:10:55;45.73;;;21.97;;
19800;SDS011;10060;48.274;12.214;2022-12-10T00:13:57;42.17;;;19.80;;
19800;SDS011;10060;48.274;12.214;2022-12-10T00:17:00;46.07;;;20.93;;
19800;SDS011;10060;48.274;12.214;2022-12-10T00:20:02;44.57;;;21.23;;
19800;SDS011;10060;48.274;12.214;2022-12-10T00:23:05;43.40;;;20.43;;
19800;SDS011;10060;48.274;12.214;2022-12-10T00:26:08;42.43;;;21.43;;
19800;SDS011;10060;48.274;12.214;2022-12-10T00:29:11;43.40;;;20.83;;
19800;SDS011;10060;48.274;12.214;2022-12-10T00:32:13;38.10;;;19.53;;
19800;SDS011;10060;48.274;12.214;2022-12-10T00:35:15;42.40;;;19.80;;
19800;SDS011;10060;48.274;12.214;2022-12-10T00:38:19;40.83;;;19.83;;
19800;SDS011;10060;48.274;12.214;2022-12-10T00:41:21;39.73;;;19.47;;
19800;SDS011;10060;48.274;12.214;2022-12-10T00:44:23;43.13;;;19.87;;
19800;SDS011;10060;48.274;12.214;2022-12-10T00:47:25;41.80;;;20.87;;
19800;SDS011;10060;48.274;12.214;2022-12-10T00:50:27;40.20;;;20.87;;
19800;SDS011;10060;48.274;12.214;2022-12-10T00:53:31;41.47;;;20.47;;
19800;SDS011;10060;48.274;12.214;2022-12-10T00:56:34;40.83;;;20.63;;
19800;SDS011;10060;48.274;12.214;2022-12-10T00:59:36;40.03;;;19.87;;
19800;SDS011;10060;48.274;12.214;2022-12-10T01:02:38;38.40;;;20.27;;
19800;SDS011;10060;48.274;12.214;2022-12-10T01:05:40;37.87;;;18.87;;
19800;SDS011;10060;48.274;12.214;2022-12-10T01:08:44;38.43;;;19.63;;
19800;SDS011;10060;48.274;12.214;2022-12-10T01:11:47;42.50;;;19.10;;
19800;SDS011;10060;48.274;12.214;2022-12-10T01:14:49;45.53;;;20.60;;
19800;SDS011;10060;48.274;12.214;2022-12-10T01:17:51;40.77;;;20.37;;
19800;SDS011;10060;48.274;12.214;2022-12-10T01:20:53;42.03;;;20.20;;
19800;SDS011;10060;48.274;12.214;2022-12-10T01:23:57;43.30;;;21.07;;
19800;SDS011;10060;48.274;12.214;2022-12-10T01:26:59;39.97;;;20.17;;
19800;SDS011;10060;48.274;12.214;2022-12-10T01:30:02;42.03;;;20.83;;
19800;SDS011;10060;48.274;12.214;2022-12-10T01:33:04;43.90;;;20.80;;
19800;SDS011;10060;48.274;12.214;2022-12-10T01:36:07;38.33;;;19.33;;
19800;SDS011;10060;48.274;12.214;2022-12-10T01:39:12;40.17;;;20.07;;
19800;SDS011;10060;48.274;12.214;2022-12-10T01:42:14;41.13;;;20.33;;
19800;SDS011;10060;48.274;12.214;2022-12-10T01:45:17;44.67;;;21.83;;
19800;SDS011;10060;48.274;12.214;2022-12-10T01:48:19;44.73;;;20.33;;
19800;SDS011;10060;48.274;12.214;2022-12-10T01:51:22;45.93;;;21.43;;
19800;SDS011;10060;48.274;12.214;2022-12-10T01:54:26;43.63;;;21.83;;
19800;SDS011;10060;48.274;12.214;2022-12-10T01:57:29;45.83;;;21.43;;
19800;SDS011;10060;48.274;12.214;2022-12-10T02:00:31;42.87;;;21.80;;
19800;SDS011;10060;48.274;12.214;2022-12-10T02:03:39;44.30;;;20.20;;
19800;SDS011;10060;48.274;12.214;2022-12-10T02:06:45;39.70;;;19.93;;
19800;SDS011;10060;48.274;12.214;2022-12-10T02:09:50;47.70;;;20.17;;
19800;SDS011;10060;48.274;12.214;2022-12-10T02:12:55;50.77;;;22.20;;
19800;SDS011;10060;48.274;12.214;2022-12-10T02:16:00;48.73;;;21.77;;
19800;SDS011;10060;48.274;12.214;2022-12-10T02:19:06;41.13;;;20.67;;
19800;SDS011;10060;48.274;12.214;2022-12-10T02:22:11;45.13;;;21.67;;
19800;SDS011;10060;48.274;12.214;2022-12-10T02:25:15;43.43;;;21.27;;
19800;SDS011;10060;48.274;12.214;2022-12-10T02:28:21;47.73;;;21.87;;
19800;SDS011;10060;48.274;12.214;2022-12-10T02:31:26;44.73;;;21.00;;
19800;SDS011;10060;48.274;12.214;2022-12-10T02:34:30;46.13;;;22.53;;
19800;SDS011;10060;48.274;12.214;2022-12-10T02:37:34;47.63;;;21.87;;
19800;SDS011;10060;48.274;12.214;2022-12-10T02:40:37;44.63;;;20.60;;
19800;SDS011;10060;48.274;12.214;2022-12-10T02:43:41;42.87;;;20.43;;
19800;SDS011;10060;48.274;12.214;2022-12-10T02:46:46;44.23;;;21.23;;
19800;SDS011;10060;48.274;12.214;2022-12-10T02:49:50;42.67;;;21.50;;
19800;SDS011;10060;48.274;12.214;2022-12-10T02:52:52;41.67;;;20.33;;
19800;SDS011;10060;48.274;12.214;2022-12-10T02:55:56;46.87;;;20.73;;
19800;SDS011;10060;48.274;12.214;2022-12-10T02:59:06;46.10;;;21.43;;
19800;SDS011;10060;48.274;12.214;2022-12-10T03:02:12;50.37;;;22.00;;
19800;SDS011;10060;48.274;12.214;2022-12-10T03:05:16;46.60;;;21.43;;
19800;SDS011;10060;48.274;12.214;2022-12-10T03:08:22;44.00;;;21.67;;
19800;SDS011;10060;48.274;12.214;2022-12-10T03:11:25;47.13;;;20.77;;
19800;SDS011;10060;48.274;12.214;2022-12-10T03:14:28;50.07;;;22.83;;
19800;SDS011;10060;48.274;12.214;2022-12-10T03:17:32;50.73;;;22.23;;
19800;SDS011;10060;48.274;12.214;2022-12-10T03:20:36;51.73;;;21.37;;
19800;SDS011;10060;48.274;12.214;2022-12-10T03:23:40;42.03;;;21.13;;
19800;SDS011;10060;48.274;12.214;2022-12-10T03:26:44;43.83;;;20.80;;
19800;SDS011;10060;48.274;12.214;2022-12-10T03:29:48;48.83;;;21.93;;
19800;SDS011;10060;48.274;12.214;2022-12-10T03:32:52;50.47;;;21.20;;
19800;SDS011;10060;48.274;12.214;2022-12-10T03:35:55;45.87;;;21.93;;
19800;SDS011;10060;48.274;12.214;2022-12-10T03:38:57;47.67;;;21.47;;
19800;SDS011;10060;48.274;12.214;2022-12-10T03:42:00;45.13;;;20.73;;
19800;SDS011;10060;48.274;12.214;2022-12-10T03:45:02;47.77;;;21.50;;
19800;SDS011;10060;48.274;12.214;2022-12-10T03:48:06;47.20;;;22.53;;
19800;SDS011;10060;48.274;12.214;2022-12-10T03:51:08;42.37;;;20.50;;
19800;SDS011;10060;48.274;12.214;2022-12-10T03:54:10;40.50;;;20.37;;
19800;SDS011;10060;48.274;12.214;2022-12-10T03:57:12;43.50;;;21.23;;
19800;SDS011;10060;48.274;12.214;2022-12-10T04:00:15;39.20;;;19.70;;
19800;SDS011;10060;48.274;12.214;2022-12-10T04:03:18;44.73;;;21.20;;
19800;SDS011;10060;48.274;12.214;2022-12-10T04:06:21;41.53;;;20.50;;
19800;SDS011;10060;48.274;12.214;2022-12-10T04:09:23;50.10;;;22.80;;
19800;SDS011;10060;48.274;12.214;2022-12-10T04:12:25;44.63;;;20.50;;
19800;SDS011;10060;48.274;12.214;2022-12-10T04:15:27;45.13;;;20.20;;
19800;SDS011;10060;48.274;12.214;2022-12-10T04:18:48;43.03;;;20.60;;
19800;SDS011;10060;48.274;12.214;2022-12-10T04:21:50;41.57;;;20.07;;
19800;SDS011;10060;48.274;12.214;2022-12-10T04:25:10;44.80;;;22.33;;
19800;SDS011;10060;48.274;12.214;2022-12-10T04:28:31;45.80;;;21.83;;
19800;SDS011;10060;48.274;12.214;2022-12-10T04:31:33;43.10;;;20.80;;
19800;SDS011;10060;48.274;12.214;2022-12-10T04:34:36;46.03;;;21.77;;
19800;SDS011;10060;48.274;12.214;2022-12-10T04:37:38;46.43;;;22.37;;
19800;SDS011;10060;48.274;12.214;2022-12-10T04:40:40;44.73;;;21.57;;
19800;SDS011;10060;48.274;12.214;2022-12-10T04:43:42;44.73;;;20.33;;
19800;SDS011;10060;48.274;12.214;2022-12-10T04:46:45;42.17;;;20.87;;
19800;SDS011;10060;48.274;12.214;2022-12-10T04:49:48;48.53;;;22.73;;
19800;SDS011;10060;48.274;12.214;2022-12-10T04:52:50;48.90;;;22.23;;
19800;SDS011;10060;48.274;12.214;2022-12-10T04:55:52;47.87;;;22.00;;
19800;SDS011;10060;48.274;12.214;2022-12-10T04:58:55;46.93;;;21.10;;
19800;SDS011;10060;48.274;12.214;2022-12-10T05:01:57;45.63;;;20.70;;
19800;SDS011;10060;48.274;12.214;2022-12-10T05:05:00;47.93;;;21.87;;
19800;SDS011;10060;48.274;12.214;2022-12-10T05:08:02;47.67;;;21.33;;
19800;SDS011;10060;48.274;12.214;2022-12-10T05:11:06;48.57;;;22.27;;
19800;SDS011;10060;48.274;12.214;2022-12-10T05:14:08;48.40;;;21.47;;
19800;SDS011;10060;48.274;12.214;2022-12-10T05:17:11;47.33;;;21.00;;
19800;SDS011;10060;48.274;12.214;2022-12-10T05:20:15;40.90;;;21.27;;
19800;SDS011;10060;48.274;12.214;2022-12-10T05:23:17;41.23;;;20.47;;
19800;SDS011;10060;48.274;12.214;2022-12-10T05:26:27;43.53;;;19.63;;
19800;SDS011;10060;48.274;12.214;2022-12-10T05:29:29;38.93;;;19.13;;
19800;SDS011;10060;48.274;12.214;2022-12-10T05:32:32;40.57;;;20.50;;
19800;SDS011;10060;48.274;12.214;2022-12-10T05:35:36;43.83;;;20.23;;
19800;SDS011;10060;48.274;12.214;2022-12-10T05:38:38;43.50;;;20.47;;
19800;SDS011;10060;48.274;12.214;2022-12-10T05:41:41;43.57;;;21.63;;
19800;SDS011;10060;48.274;12.214;2022-12-10T05:44:43;43.93;;;21.33;;
19800;SDS011;10060;48.274;12.214;2022-12-10T05:47:45;46.47;;;21.80;;
19800;SDS011;10060;48.274;12.214;2022-12-10T05:50:49;42.73;;;20.30;;
19800;SDS011;10060;48.274;12.214;2022-12-10T05:53:51;42.23;;;21.70;;
19800;SDS011;10060;48.274;12.214;2022-12-10T05:56:54;45.00;;;21.53;;
19800;SDS011;10060;48.274;12.214;2022-12-10T05:59:56;48.53;;;21.33;;
19800;SDS011;10060;48.274;12.214;2022-12-10T06:02:58;45.13;;;22.93;;
19800;SDS011;10060;48.274;12.214;2022-12-10T06:06:01;43.10;;;21.80;;
19800;SDS011;10060;48.274;12.214;2022-12-10T06:09:03;46.27;;;22.13;;
19800;SDS011;10060;48.274;12.214;2022-12-10T06:12:06;41.33;;;20.47;;
19800;SDS011;10060;48.274;12.214;2022-12-10T06:15:08;43.53;;;20.83;;
19800;SDS011;10060;48.274;12.214;2022-12-10T06:18:11;46.43;;;22.37;;
19800;SDS011;10060;48.274;12.214;2022-12-10T06:21:15;45.43;;;21.50;;
19800;SDS011;10060;48.274;12.214;2022-12-10T06:24:18;39.27;;;19.77;;
19800;SDS011;10060;48.274;12.214;2022-12-10T06:27:20;46.53;;;21.73;;
19800;SDS011;10060;48.274;12.214;2022-12-10T06:30:22;45.53;;;20.67;;
19800;SDS011;10060;48.274;12.214;2022-12-10T06:33:24;44.17;;;21.63;;
19800;SDS011;10060;48.274;12.214;2022-12-10T06:36:28;42.43;;;20.50;;
19800;SDS011;10060;48.274;12.214;2022-12-10T06:39:30;43.93;;;21.03;;
19800;SDS011;10060;48.274;12.214;2022-12-10T06:42:32;42.17;;;20.77;;
19800;SDS011;10060;48.274;12.214;2022-12-10T06:45:37;41.30;;;20.67;;
19800;SDS011;10060;48.274;12.214;2022-12-10T06:48:39;40.53;;;21.13;;
19800;SDS011;10060;48.274;12.214;2022-12-10T06:51:43;39.13;;;19.90;;
19800;SDS011;10060;48.274;12.214;2022-12-10T06:54:45;42.47;;;20.73;;
19800;SDS011;10060;48.274;12.214;2022-12-10T06:57:50;45.03;;;21.10;;
19800;SDS011;10060;48.274;12.214;2022-12-10T07:00:52;50.03;;;23.30;;
19800;SDS011;10060;48.274;12.214;2022-12-10T07:03:54;47.90;;;21.00;;
19800;SDS011;10060;48.274;12.214;2022-12-10T07:06:58;49.07;;;23.07;;
19800;SDS011;10060;48.274;12.214;2022-12-10T07:10:00;47.20;;;22.10;;
19800;SDS011;10060;48.274;12.214;2022-12-10T07:13:02;46.23;;;20.80;;
19800;SDS011;10060;48.274;12.214;2022-12-10T07:16:11;51.60;;;21.67;;
19800;SDS011;10060;48.274;12.214;2022-12-10T07:19:13;49.10;;;21.67;;
19800;SDS011;10060;48.274;12.214;2022-12-10T07:22:16;43.53;;;20.53;;
19800;SDS011;10060;48.274;12.214;2022-12-10T07:25:19;46.03;;;21.53;;
19800;SDS011;10060;48.274;12.214;2022-12-10T07:28:21;51.03;;;22.67;;
19800;SDS011;10060;48.274;12.214;2022-12-10T07:31:23;51.70;;;22.77;;
19800;SDS011;10060;48.274;12.214;2022-12-10T07:34:25;43.40;;;21.33;;
19800;SDS011;10060;48.274;12.214;2022-12-10T07:37:28;44.53;;;22.37;;
19800;SDS011;10060;48.274;12.214;2022-12-10T07:40:30;45.13;;;22.50;;
19800;SDS011;10060;48.274;12.214;2022-12-10T07:43:32;43.07;;;21.70;;
19800;SDS011;10060;48.274;12.214;2022-12-10T07:46:35;44.97;;;21.83;;
19800;SDS011;10060;48.274;12.214;2022-12-10T07:49:37;48.40;;;23.20;;
19800;SDS011;10060;48.274;12.214;2022-12-10T07:52:40;45.07;;;21.83;;
19800;SDS011;10060;48.274;12.214;2022-12-10T07:55:42;47.27;;;22.43;;
19800;SDS011;10060;48.274;12.214;2022-12-10T07:58:44;49.33;;;21.10;;
19800;SDS011;10060;48.274;12.214;2022-12-10T08:01:46;47.80;;;22.37;;
19800;SDS011;10060;48.274;12.214;2022-12-10T08:04:49;48.47;;;22.53;;
19800;SDS011;10060;48.274;12.214;2022-12-10T08:07:53;49.17;;;22.70;;
19800;SDS011;10060;48.274;12.214;2022-12-10T08:10:55;44.73;;;23.47;;
19800;SDS011;10060;48.274;12.214;2022-12-10T08:13:57;45.27;;;21.57;;
19800;SDS011;10060;48.274;12.214;2022-12-10T08:16:59;49.23;;;22.47;;
19800;SDS011;10060;48.274;12.214;2022-12-10T08:20:01;46.70;;;21.30;;
19800;SDS011;10060;48.274;12.214;2022-12-10T08:23:04;44.13;;;21.83;;
19800;SDS011;10060;48.274;12.214;2022-12-10T08:26:07;49.53;;;23.10;;
19800;SDS011;10060;48.274;12.214;2022-12-10T08:29:09;47.17;;;23.63;;
19800;SDS011;10060;48.274;12.214;2022-12-10T08:32:12;51.27;;;22.77;;
19800;SDS011;10060;48.274;12.214;2022-12-10T08:35:14;49.10;;;22.77;;
19800;SDS011;10060;48.274;12.214;2022-12-10T08:38:17;48.97;;;22.50;;
19800;SDS011;10060;48.274;12.214;2022-12-10T08:41:20;45.63;;;21.50;;
19800;SDS011;10060;48.274;12.214;2022-12-10T08:44:22;45.67;;;22.77;;
19800;SDS011;10060;48.274;12.214;2022-12-10T08:47:24;43.90;;;21.40;;
19800;SDS011;10060;48.274;12.214;2022-12-10T08:50:26;50.17;;;23.20;;
19800;SDS011;10060;48.274;12.214;2022-12-10T08:53:30;47.97;;;22.37;;
19800;SDS011;10060;48.274;12.214;2022-12-10T08:56:32;58.70;;;24.67;;
19800;SDS011;10060;48.274;12.214;2022-12-10T08:59:34;53.10;;;24.87;;
19800;SDS011;10060;48.274;12.214;2022-12-10T09:02:36;51.37;;;25.03;;
19800;SDS011;10060;48.274;12.214;2022-12-10T09:05:38;53.00;;;25.87;;
19800;SDS011;10060;48.274;12.214;2022-12-10T09:08:43;55.57;;;24.80;;
19800;SDS011;10060;48.274;12.214;2022-12-10T09:11:45;47.10;;;22.67;;
19800;SDS011;10060;48.274;12.214;2022-12-10T09:14:47;52.73;;;24.00;;
19800;SDS011;10060;48.274;12.214;2022-12-10T09:17:49;55.33;;;24.40;;
19800;SDS011;10060;48.274;12.214;2022-12-10T09:20:51;57.13;;;24.13;;
19800;SDS011;10060;48.274;12.214;2022-12-10T09:23:55;54.60;;;25.20;;
19800;SDS011;10060;48.274;12.214;2022-12-10T09:26:57;56.43;;;24.70;;
19800;SDS011;10060;48.274;12.214;2022-12-10T09:29:59;52.70;;;24.43;;
19800;SDS011;10060;48.274;12.214;2022-12-10T09:33:01;43.17;;;21.50;;
19800;SDS011;10060;48.274;12.214;2022-12-10T09:36:04;50.73;;;23.37;;
19800;SDS011;10060;48.274;12.214;2022-12-10T09:39:08;52.17;;;21.57;;
19800;SDS011;10060;48.274;12.214;2022-12-10T09:42:13;56.63;;;25.17;;
19800;SDS011;10060;48.274;12.214;2022-12-10T09:45:21;55.37;;;24.77;;
19800;SDS011;10060;48.274;12.214;2022-12-10T09:48:27;55.33;;;24.20;;
19800;SDS011;10060;48.274;12.214;2022-12-10T09:51:33;52.23;;;24.50;;
19800;SDS011;10060;48.274;12.214;2022-12-10T09:54:38;46.33;;;21.20;;
19800;SDS011;10060;48.274;12.214;2022-12-10T09:57:42;46.83;;;22.30;;
19800;SDS011;10060;48.274;12.214;2022-12-10T10:00:45;46.50;;;21.90;;
19800;SDS011;10060;48.274;12.214;2022-12-10T10:03:48;49.77;;;22.30;;
19800;SDS011;10060;48.274;12.214;2022-12-10T10:06:50;48.93;;;22.80;;
19800;SDS011;10060;48.274;12.214;2022-12-10T10:09:55;46.77;;;22.90;;
19800;SDS011;10060;48.274;12.214;2022-12-10T10:13:00;53.90;;;25.07;;
19800;SDS011;10060;48.274;12.214;2022-12-10T10:16:16;52.33;;;23.90;;
19800;SDS011;10060;48.274;12.214;2022-12-10T10:19:21;47.30;;;23.07;;
19800;SDS011;10060;48.274;12.214;2022-12-10T10:22:26;43.10;;;21.23;;
19800;SDS011;10060;48.274;12.214;2022-12-10T10:25:31;50.87;;;24.17;;
19800;SDS011;10060;48.274;12.214;2022-12-10T10:28:33;53.83;;;26.37;;
19800;SDS011;10060;48.274;12.214;2022-12-10T10:31:37;53.77;;;24.93;;
19800;SDS011;10060;48.274;12.214;2022-12-10T10:34:40;59.70;;;27.00;;
19800;SDS011;10060;48.274;12.214;2022-12-10T10:37:42;60.17;;;30.27;;
19800;SDS011;10060;48.274;12.214;2022-12-10T10:40:46;61.03;;;27.03;;
19800;SDS011;10060;48.274;12.214;2022-12-10T10:43:51;47.80;;;23.17;;
19800;SDS011;10060;48.274;12.214;2022-12-10T10:46:55;50.87;;;23.23;;
19800;SDS011;10060;48.274;12.214;2022-12-10T10:49:57;46.10;;;22.03;;
19800;SDS011;10060;48.274;12.214;2022-12-10T10:53:00;54.60;;;24.30;;
19800;SDS011;10060;48.274;12.214;2022-12-10T10:56:07;51.10;;;23.60;;
19800;SDS011;10060;48.274;12.214;2022-12-10T10:59:21;53.87;;;25.10;;
19800;SDS011;10060;48.274;12.214;2022-12-10T11:02:26;57.23;;;26.27;;
19800;SDS011;10060;48.274;12.214;2022-12-10T11:05:31;49.73;;;23.40;;
19800;SDS011;10060;48.274;12.214;2022-12-10T11:08:34;54.53;;;23.63;;
19800;SDS011;10060;48.274;12.214;2022-12-10T11:11:40;56.93;;;23.07;;
19800;SDS011;10060;48.274;12.214;2022-12-10T11:14:43;55.10;;;24.13;;
19800;SDS011;10060;48.274;12.214;2022-12-10T11:17:46;49.60;;;23.47;;
19800;SDS011;10060;48.274;12.214;2022-12-10T11:20:55;56.47;;;23.60;;
19800;SDS011;10060;48.274;12.214;2022-12-10T11:23:58;51.30;;;21.83;;
19800;SDS011;10060;48.274;12.214;2022-12-10T11:27:03;58.90;;;24.63;;
19800;SDS011;10060;48.274;12.214;2022-12-10T11:30:08;55.33;;;23.67;;
19800;SDS011;10060;48.274;12.214;2022-12-10T11:33:14;50.73;;;21.30;;
19800;SDS011;10060;48.274;12.214;2022-12-10T11:36:24;44.00;;;22.20;;
19800;SDS011;10060;48.274;12.214;2022-12-10T11:39:44;57.40;;;24.13;;
19800;SDS011;10060;48.274;12.214;2022-12-10T11:42:50;53.77;;;23.27;;
19800;SDS011;10060;48.274;12.214;2022-12-10T11:45:57;48.53;;;21.80;;
19800;SDS011;10060;48.274;12.214;2022-12-10T11:49:07;46.10;;;21.73;;
19800;SDS011;10060;48.274;12.214;2022-12-10T11:52:14;45.77;;;21.97;;
19800;SDS011;10060;48.274;12.214;2022-12-10T11:55:21;48.30;;;21.93;;
19800;SDS011;10060;48.274;12.214;2022-12-10T11:58:36;46.97;;;20.73;;
19800;SDS011;10060;48.274;12.214;2022-12-10T12:01:46;54.07;;;22.07;;
19800;SDS011;10060;48.274;12.214;2022-12-10T12:04:54;49.57;;;21.87;;
19800;SDS011;10060;48.274;12.214;2022-12-10T12:08:03;53.50;;;22.40;;
19800;SDS011;10060;48.274;12.214;2022-12-10T12:11:13;52.20;;;22.47;;
19800;SDS011;10060;48.274;12.214;2022-12-10T12:14:19;54.93;;;22.43;;
19800;SDS011;10060;48.274;12.214;2022-12-10T12:17:23;51.80;;;21.73;;
19800;SDS011;10060;48.274;12.214;2022-12-10T12:20:28;56.67;;;23.27;;
19800;SDS011;10060;48.274;12.214;2022-12-10T12:23:33;52.10;;;22.70;;
19800;SDS011;10060;48.274;12.214;2022-12-10T12:26:39;47.77;;;21.90;;
19800;SDS011;10060;48.274;12.214;2022-12-10T12:29:46;56.10;;;23.67;;
19800;SDS011;10060;48.274;12.214;2022-12-10T12:32:53;50.70;;;22.47;;
19800;SDS011;10060;48.274;12.214;2022-12-10T12:35:56;51.97;;;22.73;;
19800;SDS011;10060;48.274;12.214;2022-12-10T12:39:01;56.93;;;24.37;;
19800;SDS011;10060;48.274;12.214;2022-12-10T12:42:06;53.93;;;23.40;;
19800;SDS011;10060;48.274;12.214;2022-12-10T12:45:11;57.17;;;24.37;;
19800;SDS011;10060;48.274;12.214;2022-12-10T12:48:17;57.20;;;21.80;;
19800;SDS011;10060;48.274;12.214;2022-12-10T12:51:23;51.90;;;22.60;;
19800;SDS011;10060;48.274;12.214;2022-12-10T12:54:26;53.00;;;24.87;;
19800;SDS011;10060;48.274;12.214;2022-12-10T12:57:30;49.80;;;22.73;;
19800;SDS011;10060;48.274;12.214;2022-12-10T13:00:34;57.83;;;24.93;;
19800;SDS011;10060;48.274;12.214;2022-12-10T13:03:38;52.60;;;21.70;;
19800;SDS011;10060;48.274;12.214;2022-12-10T13:06:41;60.63;;;26.77;;
19800;SDS011;10060;48.274;12.214;2022-12-10T13:09:44;60.93;;;27.37;;
19800;SDS011;10060;48.274;12.214;2022-12-10T13:12:48;61.37;;;26.50;;
19800;SDS011;10060;48.274;12.214;2022-12-10T13:15:52;54.83;;;23.43;;
19800;SDS011;10060;48.274;12.214;2022-12-10T13:19:07;52.60;;;22.73;;
19800;SDS011;10060;48.274;12.214;2022-12-10T13:25:38;54.20;;;22.93;;
19800;SDS011;10060;48.274;12.214;2022-12-10T13:28:48;61.10;;;25.73;;
19800;SDS011;10060;48.274;12.214;2022-12-10T13:32:01;62.87;;;25.90;;
19800;SDS011;10060;48.274;12.214;2022-12-10T13:35:15;60.03;;;25.17;;
19800;SDS011;10060;48.274;12.214;2022-12-10T13:38:19;62.03;;;25.30;;
19800;SDS011;10060;48.274;12.214;2022-12-10T13:41:22;61.70;;;26.23;;
19800;SDS011;10060;48.274;12.214;2022-12-10T13:44:45;65.00;;;25.33;;
19800;SDS011;10060;48.274;12.214;2022-12-10T13:47:50;58.43;;;25.90;;
19800;SDS011;10060;48.274;12.214;2022-12-10T13:50:55;63.67;;;28.07;;
19800;SDS011;10060;48.274;12.214;2022-12-10T13:54:02;63.40;;;26.10;;
19800;SDS011;10060;48.274;12.214;2022-12-10T13:57:10;64.57;;;26.93;;
19800;SDS011;10060;48.274;12.214;2022-12-10T14:00:16;59.30;;;27.57;;
19800;SDS011;10060;48.274;12.214;2022-12-10T14:03:37;60.93;;;25.13;;
19800;SDS011;10060;48.274;12.214;2022-12-10T14:06:42;65.37;;;25.30;;
19800;SDS011;10060;48.274;12.214;2022-12-10T14:09:45;56.73;;;25.73;;
19800;SDS011;10060;48.274;12.214;2022-12-10T14:12:49;55.13;;;24.80;;
19800;SDS011;10060;48.274;12.214;2022-12-10T14:15:53;59.53;;;25.03;;
19800;SDS011;10060;48.274;12.214;2022-12-10T14:18:57;62.47;;;26.17;;
19800;SDS011;10060;48.274;12.214;2022-12-10T14:22:03;56.57;;;26.00;;
19800;SDS011;10060;48.274;12.214;2022-12-10T14:25:09;54.33;;;25.23;;
19800;SDS011;10060;48.274;12.214;2022-12-10T14:28:13;66.17;;;29.73;;
19800;SDS011;10060;48.274;12.214;2022-12-10T14:31:17;75.37;;;32.87;;
19800;SDS011;10060;48.274;12.214;2022-12-10T14:34:22;67.40;;;29.00;;
19800;SDS011;10060;48.274;12.214;2022-12-10T14:37:26;62.33;;;26.97;;
19800;SDS011;10060;48.274;12.214;2022-12-10T14:40:31;63.80;;;27.80;;
19800;SDS011;10060;48.274;12.214;2022-12-10T14:43:35;56.00;;;25.27;;
19800;SDS011;10060;48.274;12.214;2022-12-10T14:46:38;57.20;;;26.93;;
19800;SDS011;10060;48.274;12.214;2022-12-10T14:49:41;66.73;;;27.33;;
19800;SDS011;10060;48.274;12.214;2022-12-10T14:52:50;68.47;;;29.10;;
19800;SDS011;10060;48.274;12.214;2022-12-10T14:55:53;67.53;;;27.40;;
19800;SDS011;10060;48.274;12.214;2022-12-10T14:59:01;67.93;;;27.27;;
19800;SDS011;10060;48.274;12.214;2022-12-10T15:02:05;61.43;;;26.67;;
19800;SDS011;10060;48.274;12.214;2022-12-10T15:05:16;62.77;;;25.77;;
19800;SDS011;10060;48.274;12.214;2022-12-10T15:08:18;63.73;;;26.67;;
19800;SDS011;10060;48.274;12.214;2022-12-10T15:11:21;55.17;;;24.40;;
19800;SDS011;10060;48.274;12.214;2022-12-10T15:14:23;57.97;;;25.10;;
19800;SDS011;10060;48.274;12.214;2022-12-10T15:17:36;85.53;;;33.73;;
19800;SDS011;10060;48.274;12.214;2022-12-10T15:20:45;76.93;;;29.90;;
19800;SDS011;10060;48.274;12.214;2022-12-10T15:23:48;74.73;;;31.70;;
19800;SDS011;10060;48.274;12.214;2022-12-10T15:26:50;75.93;;;31.43;;
19800;SDS011;10060;48.274;12.214;2022-12-10T15:29:52;71.60;;;28.87;;
19800;SDS011;10060;48.274;12.214;2022-12-10T15:32:55;63.00;;;27.47;;
19800;SDS011;10060;48.274;12.214;2022-12-10T15:35:58;68.50;;;28.10;;
19800;SDS011;10060;48.274;12.214;2022-12-10T15:39:02;68.47;;;28.07;;
19800;SDS011;10060;48.274;12.214;2022-12-10T15:42:05;66.60;;;26.27;;
19800;SDS011;10060;48.274;12.214;2022-12-10T15:45:12;64.00;;;26.53;;
19800;SDS011;10060;48.274;12.214;2022-12-10T15:48:17;72.53;;;28.03;;
19800;SDS011;10060;48.274;12.214;2022-12-10T15:51:20;64.40;;;24.90;;
19800;SDS011;10060;48.274;12.214;2022-12-10T15:54:23;68.53;;;26.83;;
19800;SDS011;10060;48.274;12.214;2022-12-10T15:57:31;62.63;;;25.37;;
19800;SDS011;10060;48.274;12.214;2022-12-10T16:00:33;71.70;;;27.13;;
19800;SDS011;10060;48.274;12.214;2022-12-10T16:03:36;69.20;;;27.37;;
19800;SDS011;10060;48.274;12.214;2022-12-10T16:06:41;68.10;;;28.07;;
19800;SDS011;10060;48.274;12.214;2022-12-10T16:09:43;56.67;;;25.13;;
19800;SDS011;10060;48.274;12.214;2022-12-10T16:12:47;61.03;;;22.97;;
19800;SDS011;10060;48.274;12.214;2022-12-10T16:15:54;54.00;;;22.57;;
19800;SDS011;10060;48.274;12.214;2022-12-10T16:18:59;59.93;;;25.40;;
19800;SDS011;10060;48.274;12.214;2022-12-10T16:22:02;57.63;;;24.67;;
19800;SDS011;10060;48.274;12.214;2022-12-10T16:25:05;52.20;;;21.40;;
19800;SDS011;10060;48.274;12.214;2022-12-10T16:28:07;50.63;;;20.70;;
19800;SDS011;10060;48.274;12.214;2022-12-10T16:31:10;51.67;;;19.73;;
19800;SDS011;10060;48.274;12.214;2022-12-10T16:34:13;45.00;;;19.33;;
19800;SDS011;10060;48.274;12.214;2022-12-10T16:37:16;42.17;;;18.77;;
19800;SDS011;10060;48.274;12.214;2022-12-10T16:40:18;40.57;;;18.07;;
19800;SDS011;10060;48.274;12.214;2022-12-10T16:43:21;39.43;;;17.50;;
19800;SDS011;10060;48.274;12.214;2022-12-10T16:46:24;41.57;;;18.37;;
19800;SDS011;10060;48.274;12.214;2022-12-10T16:49:26;44.40;;;18.90;;
19800;SDS011;10060;48.274;12.214;2022-12-10T16:52:30;38.67;;;17.37;;
19800;SDS011;10060;48.274;12.214;2022-12-10T16:55:32;37.20;;;17.33;;
19800;SDS011;10060;48.274;12.214;2022-12-10T16:58:35;41.43;;;17.80;;
19800;SDS011;10060;48.274;12.214;2022-12-10T17:01:37;43.70;;;18.20;;
19800;SDS011;10060;48.274;12.214;2022-12-10T17:04:39;37.77;;;16.17;;
19800;SDS011;10060;48.274;12.214;2022-12-10T17:07:43;47.43;;;19.73;;
19800;SDS011;10060;48.274;12.214;2022-12-10T17:10:45;40.37;;;17.93;;
19800;SDS011;10060;48.274;12.214;2022-12-10T17:14:09;34.20;;;17.17;;
19800;SDS011;10060;48.274;12.214;2022-12-10T17:17:12;42.03;;;17.60;;
19800;SDS011;10060;48.274;12.214;2022-12-10T17:20:15;42.57;;;18.40;;
19800;SDS011;10060;48.274;12.214;2022-12-10T17:23:19;41.40;;;21.40;;
19800;SDS011;10060;48.274;12.214;2022-12-10T17:26:24;32.33;;;15.40;;
19800;SDS011;10060;48.274;12.214;2022-12-10T17:29:28;28.33;;;13.80;;
19800;SDS011;10060;48.274;12.214;2022-12-10T17:32:30;24.23;;;12.10;;
19800;SDS011;10060;48.274;12.214;2022-12-10T17:35:32;25.40;;;12.30;;
19800;SDS011;10060;48.274;12.214;2022-12-10T17:38:36;26.00;;;13.47;;
19800;SDS011;10060;48.274;12.214;2022-12-10T17:41:38;28.10;;;14.03;;
19800;SDS011;10060;48.274;12.214;2022-12-10T17:44:40;30.03;;;14.03;;